sensor_id;sensor_type;location;lat;lon;timestamp;P1;durP1;ratioP1;P2;durP2;ratioP2
52982;SDS011;48698;45.736;13.926;2022-12-29T00:03:14;48.83;;;33.47;;
52982;SDS011;48698;45.736;13.926;2022-12-29T00:08:19;51.85;;;34.17;;
52982;SDS011;48698;45.736;13.926;2022-12-29T00:13:22;47.67;;;33.38;;
52982;SDS011;48698;45.736;13.926;2022-12-29T00:18:44;54.50;;;32.80;;
52982;SDS011;48698;45.736;13.926;2022-12-29T00:23:58;42.05;;;31.02;;
52982;SDS011;48698;45.736;13.926;2022-12-29T00:29:20;46.03;;;32.78;;
52982;SDS011;48698;45.736;13.926;2022-12-29T00:34:43;50.92;;;34.03;;
52982;SDS011;48698;45.736;13.926;2022-12-29T00:40:05;46.30;;;33.78;;
52982;SDS011;48698;45.736;13.926;2022-12-29T00:45:27;52.15;;;34.65;;
52982;SDS011;48698;45.736;13.926;2022-12-29T00:50:31;55.03;;;36.13;;
52982;SDS011;48698;45.736;13.926;2022-12-29T00:55:38;54.05;;;36.15;;
52982;SDS011;48698;45.736;13.926;2022-12-29T01:00:43;49.35;;;35.22;;
52982;SDS011;48698;45.736;13.926;2022-12-29T01:05:56;52.92;;;36.40;;
52982;SDS011;48698;45.736;13.926;2022-12-29T01:11:05;53.38;;;37.50;;
52982;SDS011;48698;45.736;13.926;2022-12-29T01:16:13;57.92;;;39.85;;
52982;SDS011;48698;45.736;13.926;2022-12-29T01:21:18;54.70;;;36.95;;
52982;SDS011;48698;45.736;13.926;2022-12-29T01:26:21;55.05;;;38.75;;
52982;SDS011;48698;45.736;13.926;2022-12-29T01:31:25;57.10;;;38.53;;
52982;SDS011;48698;45.736;13.926;2022-12-29T01:36:28;51.58;;;35.90;;
52982;SDS011;48698;45.736;13.926;2022-12-29T01:41:33;51.00;;;35.05;;
52982;SDS011;48698;45.736;13.926;2022-12-29T01:46:37;50.92;;;35.95;;
52982;SDS011;48698;45.736;13.926;2022-12-29T01:52:05;51.60;;;34.42;;
52982;SDS011;48698;45.736;13.926;2022-12-29T01:57:10;54.33;;;35.30;;
52982;SDS011;48698;45.736;13.926;2022-12-29T02:02:16;45.15;;;30.05;;
52982;SDS011;48698;45.736;13.926;2022-12-29T02:07:21;45.83;;;29.77;;
52982;SDS011;48698;45.736;13.926;2022-12-29T02:12:27;50.70;;;33.05;;
52982;SDS011;48698;45.736;13.926;2022-12-29T02:17:56;46.33;;;32.13;;
52982;SDS011;48698;45.736;13.926;2022-12-29T02:23:43;51.05;;;33.83;;
52982;SDS011;48698;45.736;13.926;2022-12-29T02:45:04;50.03;;;34.42;;
52982;SDS011;48698;45.736;13.926;2022-12-29T02:50:21;50.10;;;35.90;;
52982;SDS011;48698;45.736;13.926;2022-12-29T02:55:37;59.72;;;38.80;;
52982;SDS011;48698;45.736;13.926;2022-12-29T03:00:46;53.50;;;36.08;;
52982;SDS011;48698;45.736;13.926;2022-12-29T03:11:13;51.65;;;35.45;;
52982;SDS011;48698;45.736;13.926;2022-12-29T03:16:45;59.88;;;37.17;;
52982;SDS011;48698;45.736;13.926;2022-12-29T03:21:59;56.28;;;36.35;;
52982;SDS011;48698;45.736;13.926;2022-12-29T03:32:44;54.10;;;35.92;;
52982;SDS011;48698;45.736;13.926;2022-12-29T03:37:57;56.15;;;36.67;;
52982;SDS011;48698;45.736;13.926;2022-12-29T03:43:03;51.55;;;34.45;;
52982;SDS011;48698;45.736;13.926;2022-12-29T03:48:07;50.65;;;31.65;;
52982;SDS011;48698;45.736;13.926;2022-12-29T03:53:10;44.88;;;31.77;;
52982;SDS011;48698;45.736;13.926;2022-12-29T03:58:14;47.15;;;31.92;;
52982;SDS011;48698;45.736;13.926;2022-12-29T04:08:23;47.22;;;32.78;;
52982;SDS011;48698;45.736;13.926;2022-12-29T04:13:26;50.15;;;33.28;;
52982;SDS011;48698;45.736;13.926;2022-12-29T04:18:36;47.75;;;33.72;;
52982;SDS011;48698;45.736;13.926;2022-12-29T04:23:39;52.60;;;34.22;;
52982;SDS011;48698;45.736;13.926;2022-12-29T04:28:43;51.17;;;34.20;;
52982;SDS011;48698;45.736;13.926;2022-12-29T04:33:47;52.42;;;35.47;;
52982;SDS011;48698;45.736;13.926;2022-12-29T04:38:51;50.97;;;33.85;;
52982;SDS011;48698;45.736;13.926;2022-12-29T04:43:55;53.83;;;34.33;;
52982;SDS011;48698;45.736;13.926;2022-12-29T04:48:58;49.47;;;33.22;;
52982;SDS011;48698;45.736;13.926;2022-12-29T04:54:03;47.33;;;31.15;;
52982;SDS011;48698;45.736;13.926;2022-12-29T04:59:08;42.58;;;29.38;;
52982;SDS011;48698;45.736;13.926;2022-12-29T05:04:11;38.30;;;26.65;;
52982;SDS011;48698;45.736;13.926;2022-12-29T05:09:15;46.05;;;29.52;;
52982;SDS011;48698;45.736;13.926;2022-12-29T05:14:19;48.10;;;31.60;;
52982;SDS011;48698;45.736;13.926;2022-12-29T05:19:27;50.58;;;33.15;;
52982;SDS011;48698;45.736;13.926;2022-12-29T05:24:31;49.78;;;33.00;;
52982;SDS011;48698;45.736;13.926;2022-12-29T05:29:35;52.53;;;34.20;;
52982;SDS011;48698;45.736;13.926;2022-12-29T05:34:38;52.35;;;33.22;;
52982;SDS011;48698;45.736;13.926;2022-12-29T05:39:42;43.88;;;29.33;;
52982;SDS011;48698;45.736;13.926;2022-12-29T05:44:45;46.20;;;29.10;;
52982;SDS011;48698;45.736;13.926;2022-12-29T05:54:54;56.22;;;35.35;;
52982;SDS011;48698;45.736;13.926;2022-12-29T05:59:57;56.97;;;35.45;;
52982;SDS011;48698;45.736;13.926;2022-12-29T06:05:01;60.60;;;37.35;;
52982;SDS011;48698;45.736;13.926;2022-12-29T06:10:05;59.58;;;34.20;;
52982;SDS011;48698;45.736;13.926;2022-12-29T06:15:09;55.05;;;32.65;;
52982;SDS011;48698;45.736;13.926;2022-12-29T06:20:23;66.43;;;44.97;;
52982;SDS011;48698;45.736;13.926;2022-12-29T06:25:26;65.78;;;38.70;;
52982;SDS011;48698;45.736;13.926;2022-12-29T06:30:31;68.85;;;40.90;;
52982;SDS011;48698;45.736;13.926;2022-12-29T06:35:36;71.88;;;36.03;;
52982;SDS011;48698;45.736;13.926;2022-12-29T06:40:41;75.93;;;40.70;;
52982;SDS011;48698;45.736;13.926;2022-12-29T06:45:45;74.13;;;42.42;;
52982;SDS011;48698;45.736;13.926;2022-12-29T06:50:49;94.55;;;52.15;;
52982;SDS011;48698;45.736;13.926;2022-12-29T06:55:52;98.65;;;53.33;;
52982;SDS011;48698;45.736;13.926;2022-12-29T07:00:56;102.18;;;55.00;;
52982;SDS011;48698;45.736;13.926;2022-12-29T07:06:00;115.80;;;39.17;;
52982;SDS011;48698;45.736;13.926;2022-12-29T07:11:04;78.30;;;42.60;;
52982;SDS011;48698;45.736;13.926;2022-12-29T07:16:08;91.57;;;40.58;;
52982;SDS011;48698;45.736;13.926;2022-12-29T07:21:13;107.25;;;43.67;;
52982;SDS011;48698;45.736;13.926;2022-12-29T07:26:16;88.22;;;47.22;;
52982;SDS011;48698;45.736;13.926;2022-12-29T07:31:21;260.13;;;47.97;;
52982;SDS011;48698;45.736;13.926;2022-12-29T07:36:25;319.20;;;51.13;;
52982;SDS011;48698;45.736;13.926;2022-12-29T07:41:53;104.47;;;44.97;;
52982;SDS011;48698;45.736;13.926;2022-12-29T07:47:05;124.25;;;48.95;;
52982;SDS011;48698;45.736;13.926;2022-12-29T07:52:11;98.55;;;48.17;;
52982;SDS011;48698;45.736;13.926;2022-12-29T07:57:14;131.55;;;67.65;;
52982;SDS011;48698;45.736;13.926;2022-12-29T08:02:17;140.73;;;66.82;;
52982;SDS011;48698;45.736;13.926;2022-12-29T08:07:21;164.27;;;74.97;;
52982;SDS011;48698;45.736;13.926;2022-12-29T08:12:24;163.27;;;70.70;;
52982;SDS011;48698;45.736;13.926;2022-12-29T08:17:27;164.43;;;68.90;;
52982;SDS011;48698;45.736;13.926;2022-12-29T08:22:31;200.20;;;61.13;;
52982;SDS011;48698;45.736;13.926;2022-12-29T08:27:44;143.43;;;61.50;;
52982;SDS011;48698;45.736;13.926;2022-12-29T08:32:47;288.67;;;66.20;;
52982;SDS011;48698;45.736;13.926;2022-12-29T08:37:51;360.15;;;69.60;;
52982;SDS011;48698;45.736;13.926;2022-12-29T08:42:54;171.02;;;58.58;;
52982;SDS011;48698;45.736;13.926;2022-12-29T08:47:58;159.18;;;61.85;;
52982;SDS011;48698;45.736;13.926;2022-12-29T08:53:11;182.85;;;67.20;;
52982;SDS011;48698;45.736;13.926;2022-12-29T08:58:14;177.52;;;71.20;;
52982;SDS011;48698;45.736;13.926;2022-12-29T09:03:19;170.05;;;72.55;;
52982;SDS011;48698;45.736;13.926;2022-12-29T09:08:43;196.25;;;76.05;;
52982;SDS011;48698;45.736;13.926;2022-12-29T09:13:47;173.17;;;74.70;;
52982;SDS011;48698;45.736;13.926;2022-12-29T09:18:51;202.57;;;82.22;;
52982;SDS011;48698;45.736;13.926;2022-12-29T09:23:54;203.50;;;78.57;;
52982;SDS011;48698;45.736;13.926;2022-12-29T09:29:00;174.25;;;67.50;;
52982;SDS011;48698;45.736;13.926;2022-12-29T09:34:04;189.57;;;70.90;;
52982;SDS011;48698;45.736;13.926;2022-12-29T09:39:08;161.35;;;66.93;;
52982;SDS011;48698;45.736;13.926;2022-12-29T09:44:23;184.32;;;69.22;;
52982;SDS011;48698;45.736;13.926;2022-12-29T09:49:54;200.52;;;73.80;;
52982;SDS011;48698;45.736;13.926;2022-12-29T09:55:03;158.32;;;66.00;;
52982;SDS011;48698;45.736;13.926;2022-12-29T10:00:16;167.13;;;66.72;;
52982;SDS011;48698;45.736;13.926;2022-12-29T10:05:30;164.77;;;61.42;;
52982;SDS011;48698;45.736;13.926;2022-12-29T10:21:25;160.85;;;61.85;;
52982;SDS011;48698;45.736;13.926;2022-12-29T10:26:41;180.52;;;64.40;;
52982;SDS011;48698;45.736;13.926;2022-12-29T10:31:47;169.10;;;62.10;;
52982;SDS011;48698;45.736;13.926;2022-12-29T10:36:58;187.48;;;71.15;;
52982;SDS011;48698;45.736;13.926;2022-12-29T10:42:09;152.43;;;61.88;;
52982;SDS011;48698;45.736;13.926;2022-12-29T10:47:18;149.55;;;63.25;;
52982;SDS011;48698;45.736;13.926;2022-12-29T10:52:25;166.15;;;68.60;;
52982;SDS011;48698;45.736;13.926;2022-12-29T10:57:32;160.55;;;66.35;;
52982;SDS011;48698;45.736;13.926;2022-12-29T11:08:21;140.60;;;61.10;;
52982;SDS011;48698;45.736;13.926;2022-12-29T11:13:49;135.60;;;59.42;;
52982;SDS011;48698;45.736;13.926;2022-12-29T11:18:54;110.47;;;52.83;;
52982;SDS011;48698;45.736;13.926;2022-12-29T11:23:59;96.78;;;48.58;;
52982;SDS011;48698;45.736;13.926;2022-12-29T11:29:08;109.38;;;52.20;;
52982;SDS011;48698;45.736;13.926;2022-12-29T11:34:22;110.85;;;55.00;;
52982;SDS011;48698;45.736;13.926;2022-12-29T11:39:34;114.18;;;54.40;;
52982;SDS011;48698;45.736;13.926;2022-12-29T11:44:52;106.53;;;52.25;;
52982;SDS011;48698;45.736;13.926;2022-12-29T11:50:06;110.50;;;54.08;;
52982;SDS011;48698;45.736;13.926;2022-12-29T11:55:20;106.38;;;52.50;;
52982;SDS011;48698;45.736;13.926;2022-12-29T12:00:38;96.78;;;48.72;;
52982;SDS011;48698;45.736;13.926;2022-12-29T12:05:47;112.03;;;53.67;;
52982;SDS011;48698;45.736;13.926;2022-12-29T12:11:09;104.07;;;50.38;;
52982;SDS011;48698;45.736;13.926;2022-12-29T12:16:18;101.20;;;50.92;;
52982;SDS011;48698;45.736;13.926;2022-12-29T12:21:46;93.25;;;49.63;;
52982;SDS011;48698;45.736;13.926;2022-12-29T12:26:55;89.85;;;46.88;;
52982;SDS011;48698;45.736;13.926;2022-12-29T12:37:43;134.27;;;74.90;;
52982;SDS011;48698;45.736;13.926;2022-12-29T12:59:06;73.45;;;41.58;;
52982;SDS011;48698;45.736;13.926;2022-12-29T13:26:20;88.88;;;43.90;;
52982;SDS011;48698;45.736;13.926;2022-12-29T13:37:29;89.38;;;45.78;;
52982;SDS011;48698;45.736;13.926;2022-12-29T13:42:35;90.30;;;45.80;;
52982;SDS011;48698;45.736;13.926;2022-12-29T13:47:58;97.32;;;50.83;;
52982;SDS011;48698;45.736;13.926;2022-12-29T14:08:46;98.13;;;50.22;;
52982;SDS011;48698;45.736;13.926;2022-12-29T14:13:50;102.07;;;51.83;;
52982;SDS011;48698;45.736;13.926;2022-12-29T14:18:54;153.88;;;86.22;;
52982;SDS011;48698;45.736;13.926;2022-12-29T14:34:43;129.70;;;65.05;;
52982;SDS011;48698;45.736;13.926;2022-12-29T14:40:03;129.35;;;65.90;;
52982;SDS011;48698;45.736;13.926;2022-12-29T14:50:38;147.18;;;70.72;;
52982;SDS011;48698;45.736;13.926;2022-12-29T14:55:55;145.65;;;60.00;;
52982;SDS011;48698;45.736;13.926;2022-12-29T15:01:00;155.38;;;68.88;;
52982;SDS011;48698;45.736;13.926;2022-12-29T15:06:04;146.13;;;64.15;;
52982;SDS011;48698;45.736;13.926;2022-12-29T15:11:12;136.57;;;65.78;;
52982;SDS011;48698;45.736;13.926;2022-12-29T15:16:25;164.07;;;78.35;;
52982;SDS011;48698;45.736;13.926;2022-12-29T15:21:34;239.23;;;127.97;;
52982;SDS011;48698;45.736;13.926;2022-12-29T15:26:38;137.02;;;66.55;;
52982;SDS011;48698;45.736;13.926;2022-12-29T15:31:53;188.40;;;72.45;;
52982;SDS011;48698;45.736;13.926;2022-12-29T15:36:56;192.18;;;75.55;;
52982;SDS011;48698;45.736;13.926;2022-12-29T15:42:09;179.88;;;67.45;;
52982;SDS011;48698;45.736;13.926;2022-12-29T15:47:22;213.73;;;86.25;;
52982;SDS011;48698;45.736;13.926;2022-12-29T15:52:28;308.73;;;81.93;;
52982;SDS011;48698;45.736;13.926;2022-12-29T15:57:37;359.30;;;85.75;;
52982;SDS011;48698;45.736;13.926;2022-12-29T16:02:46;262.23;;;76.10;;
52982;SDS011;48698;45.736;13.926;2022-12-29T16:07:57;210.68;;;79.20;;
52982;SDS011;48698;45.736;13.926;2022-12-29T16:13:02;196.02;;;63.60;;
52982;SDS011;48698;45.736;13.926;2022-12-29T16:18:15;212.32;;;59.78;;
52982;SDS011;48698;45.736;13.926;2022-12-29T16:23:27;179.48;;;60.97;;
52982;SDS011;48698;45.736;13.926;2022-12-29T16:28:35;184.07;;;64.97;;
52982;SDS011;48698;45.736;13.926;2022-12-29T16:33:52;184.63;;;73.50;;
52982;SDS011;48698;45.736;13.926;2022-12-29T16:39:18;381.75;;;74.95;;
52982;SDS011;48698;45.736;13.926;2022-12-29T16:44:27;455.27;;;93.78;;
52982;SDS011;48698;45.736;13.926;2022-12-29T16:49:33;252.27;;;117.78;;
52982;SDS011;48698;45.736;13.926;2022-12-29T16:54:37;223.38;;;112.60;;
52982;SDS011;48698;45.736;13.926;2022-12-29T16:59:41;166.25;;;68.88;;
52982;SDS011;48698;45.736;13.926;2022-12-29T17:04:45;180.73;;;77.13;;
52982;SDS011;48698;45.736;13.926;2022-12-29T17:09:50;183.98;;;79.18;;
52982;SDS011;48698;45.736;13.926;2022-12-29T17:25:18;305.70;;;79.30;;
52982;SDS011;48698;45.736;13.926;2022-12-29T17:30:23;438.08;;;77.82;;
52982;SDS011;48698;45.736;13.926;2022-12-29T17:35:34;276.02;;;78.68;;
52982;SDS011;48698;45.736;13.926;2022-12-29T17:40:37;263.30;;;90.57;;
52982;SDS011;48698;45.736;13.926;2022-12-29T17:45:40;248.60;;;85.63;;
52982;SDS011;48698;45.736;13.926;2022-12-29T17:50:46;314.33;;;130.52;;
52982;SDS011;48698;45.736;13.926;2022-12-29T17:55:50;294.25;;;102.68;;
52982;SDS011;48698;45.736;13.926;2022-12-29T18:00:54;493.75;;;97.95;;
52982;SDS011;48698;45.736;13.926;2022-12-29T18:05:59;380.98;;;88.00;;
52982;SDS011;48698;45.736;13.926;2022-12-29T18:11:02;308.90;;;99.38;;
52982;SDS011;48698;45.736;13.926;2022-12-29T18:16:05;342.38;;;102.90;;
52982;SDS011;48698;45.736;13.926;2022-12-29T18:21:16;492.65;;;202.32;;
52982;SDS011;48698;45.736;13.926;2022-12-29T18:26:24;400.38;;;106.57;;
52982;SDS011;48698;45.736;13.926;2022-12-29T18:31:32;536.53;;;256.88;;
52982;SDS011;48698;45.736;13.926;2022-12-29T18:36:36;327.15;;;111.70;;
52982;SDS011;48698;45.736;13.926;2022-12-29T18:41:39;347.80;;;111.45;;
52982;SDS011;48698;45.736;13.926;2022-12-29T18:46:42;746.45;;;101.50;;
52982;SDS011;48698;45.736;13.926;2022-12-29T18:51:55;641.10;;;94.00;;
52982;SDS011;48698;45.736;13.926;2022-12-29T18:56:57;580.17;;;102.28;;
52982;SDS011;48698;45.736;13.926;2022-12-29T19:02:14;491.92;;;89.85;;
52982;SDS011;48698;45.736;13.926;2022-12-29T19:07:18;392.23;;;93.05;;
52982;SDS011;48698;45.736;13.926;2022-12-29T19:12:21;813.38;;;384.02;;
52982;SDS011;48698;45.736;13.926;2022-12-29T19:17:28;281.10;;;89.22;;
52982;SDS011;48698;45.736;13.926;2022-12-29T19:22:31;492.58;;;93.22;;
52982;SDS011;48698;45.736;13.926;2022-12-29T19:27:33;439.52;;;85.25;;
52982;SDS011;48698;45.736;13.926;2022-12-29T19:32:36;433.83;;;84.63;;
52982;SDS011;48698;45.736;13.926;2022-12-29T19:37:39;367.83;;;82.70;;
52982;SDS011;48698;45.736;13.926;2022-12-29T19:42:43;429.70;;;81.78;;
52982;SDS011;48698;45.736;13.926;2022-12-29T19:47:45;385.83;;;76.60;;
52982;SDS011;48698;45.736;13.926;2022-12-29T19:52:48;375.52;;;79.72;;
52982;SDS011;48698;45.736;13.926;2022-12-29T19:58:06;383.60;;;98.28;;
52982;SDS011;48698;45.736;13.926;2022-12-29T20:03:09;433.05;;;91.55;;
52982;SDS011;48698;45.736;13.926;2022-12-29T20:08:12;474.23;;;84.05;;
52982;SDS011;48698;45.736;13.926;2022-12-29T20:13:15;433.40;;;91.90;;
52982;SDS011;48698;45.736;13.926;2022-12-29T20:18:28;417.00;;;91.32;;
52982;SDS011;48698;45.736;13.926;2022-12-29T20:23:32;329.27;;;92.30;;
52982;SDS011;48698;45.736;13.926;2022-12-29T20:28:35;336.23;;;81.47;;
52982;SDS011;48698;45.736;13.926;2022-12-29T20:33:38;261.10;;;66.47;;
52982;SDS011;48698;45.736;13.926;2022-12-29T20:38:41;431.27;;;81.05;;
52982;SDS011;48698;45.736;13.926;2022-12-29T20:43:44;563.13;;;84.67;;
52982;SDS011;48698;45.736;13.926;2022-12-29T20:48:47;445.35;;;66.20;;
52982;SDS011;48698;45.736;13.926;2022-12-29T20:53:51;366.00;;;77.57;;
52982;SDS011;48698;45.736;13.926;2022-12-29T20:58:53;331.77;;;79.15;;
52982;SDS011;48698;45.736;13.926;2022-12-29T21:04:26;399.85;;;65.97;;
52982;SDS011;48698;45.736;13.926;2022-12-29T21:09:59;376.90;;;66.07;;
52982;SDS011;48698;45.736;13.926;2022-12-29T21:15:02;345.55;;;68.00;;
52982;SDS011;48698;45.736;13.926;2022-12-29T21:20:05;428.27;;;63.85;;
52982;SDS011;48698;45.736;13.926;2022-12-29T21:25:08;621.58;;;76.60;;
52982;SDS011;48698;45.736;13.926;2022-12-29T21:30:17;392.17;;;53.97;;
52982;SDS011;48698;45.736;13.926;2022-12-29T21:35:25;333.50;;;59.30;;
52982;SDS011;48698;45.736;13.926;2022-12-29T21:40:28;379.42;;;70.72;;
52982;SDS011;48698;45.736;13.926;2022-12-29T21:45:41;282.33;;;61.67;;
52982;SDS011;48698;45.736;13.926;2022-12-29T21:50:44;286.92;;;64.70;;
52982;SDS011;48698;45.736;13.926;2022-12-29T21:56:09;209.57;;;66.78;;
52982;SDS011;48698;45.736;13.926;2022-12-29T22:01:13;293.92;;;53.83;;
52982;SDS011;48698;45.736;13.926;2022-12-29T22:06:35;540.85;;;65.50;;
52982;SDS011;48698;45.736;13.926;2022-12-29T22:11:56;608.08;;;60.63;;
52982;SDS011;48698;45.736;13.926;2022-12-29T22:17:17;284.52;;;51.92;;
52982;SDS011;48698;45.736;13.926;2022-12-29T22:22:25;240.88;;;50.83;;
52982;SDS011;48698;45.736;13.926;2022-12-29T22:27:29;284.65;;;62.65;;
52982;SDS011;48698;45.736;13.926;2022-12-29T22:32:32;256.20;;;66.65;;
52982;SDS011;48698;45.736;13.926;2022-12-29T22:37:35;493.70;;;87.05;;
52982;SDS011;48698;45.736;13.926;2022-12-29T22:42:40;315.02;;;69.60;;
52982;SDS011;48698;45.736;13.926;2022-12-29T22:47:43;684.80;;;85.75;;
52982;SDS011;48698;45.736;13.926;2022-12-29T22:52:46;540.92;;;81.95;;
52982;SDS011;48698;45.736;13.926;2022-12-29T22:57:49;413.25;;;77.22;;
52982;SDS011;48698;45.736;13.926;2022-12-29T23:03:01;559.05;;;69.30;;
52982;SDS011;48698;45.736;13.926;2022-12-29T23:08:06;322.77;;;67.70;;
52982;SDS011;48698;45.736;13.926;2022-12-29T23:13:08;439.80;;;71.55;;
52982;SDS011;48698;45.736;13.926;2022-12-29T23:18:11;497.13;;;66.63;;
52982;SDS011;48698;45.736;13.926;2022-12-29T23:23:23;528.67;;;72.50;;
52982;SDS011;48698;45.736;13.926;2022-12-29T23:28:49;394.00;;;67.18;;
52982;SDS011;48698;45.736;13.926;2022-12-29T23:34:00;297.02;;;75.07;;
52982;SDS011;48698;45.736;13.926;2022-12-29T23:39:06;492.38;;;63.10;;
52982;SDS011;48698;45.736;13.926;2022-12-29T23:44:14;533.58;;;73.55;;
52982;SDS011;48698;45.736;13.926;2022-12-29T23:49:17;512.03;;;62.70;;
52982;SDS011;48698;45.736;13.926;2022-12-29T23:54:20;475.30;;;57.65;;
52982;SDS011;48698;45.736;13.926;2022-12-29T23:59:23;552.08;;;57.53;;
